sensor_id;sensor_type;location;lat;lon;timestamp;temperature;humidity
20891;DHT22;10605;52.968;8.844;2023-05-10T01:50:05;13.50;99.90
20891;DHT22;10605;52.968;8.844;2023-05-10T01:53:08;13.50;99.90
20891;DHT22;10605;52.968;8.844;2023-05-10T01:59:33;13.40;99.90
20891;DHT22;10605;52.968;8.844;2023-05-10T02:02:31;13.40;99.90
20891;DHT22;10605;52.968;8.844;2023-05-10T06:56:47;13.50;99.90
20891;DHT22;10605;52.968;8.844;2023-05-10T06:59:12;13.80;99.90
20891;DHT22;10605;52.968;8.844;2023-05-10T07:01:39;14.10;99.90
20891;DHT22;10605;52.968;8.844;2023-05-10T07:04:05;14.30;99.90
20891;DHT22;10605;52.968;8.844;2023-05-10T07:06:30;14.30;99.90
20891;DHT22;10605;52.968;8.844;2023-05-10T07:08:56;14.30;99.90
20891;DHT22;10605;52.968;8.844;2023-05-10T07:11:22;14.30;99.90
20891;DHT22;10605;52.968;8.844;2023-05-10T07:13:48;14.40;99.90
20891;DHT22;10605;52.968;8.844;2023-05-10T07:16:13;14.30;99.90
20891;DHT22;10605;52.968;8.844;2023-05-10T07:18:39;14.20;99.90
20891;DHT22;10605;52.968;8.844;2023-05-10T07:21:05;14.30;99.90
20891;DHT22;10605;52.968;8.844;2023-05-10T07:23:30;14.20;99.90
20891;DHT22;10605;52.968;8.844;2023-05-10T07:25:56;14.30;99.90
20891;DHT22;10605;52.968;8.844;2023-05-10T07:28:23;14.40;99.90
20891;DHT22;10605;52.968;8.844;2023-05-10T07:30:49;14.70;99.90
20891;DHT22;10605;52.968;8.844;2023-05-10T07:33:15;14.90;99.90
20891;DHT22;10605;52.968;8.844;2023-05-10T07:35:42;15.00;99.90
20891;DHT22;10605;52.968;8.844;2023-05-10T07:38:07;15.30;99.90
20891;DHT22;10605;52.968;8.844;2023-05-10T07:40:33;15.30;99.90
20891;DHT22;10605;52.968;8.844;2023-05-10T07:42:59;15.30;99.90
20891;DHT22;10605;52.968;8.844;2023-05-10T07:45:28;15.20;99.90
20891;DHT22;10605;52.968;8.844;2023-05-10T07:47:54;15.50;99.90
20891;DHT22;10605;52.968;8.844;2023-05-10T07:50:19;15.70;99.90
20891;DHT22;10605;52.968;8.844;2023-05-10T07:52:46;16.10;99.90
20891;DHT22;10605;52.968;8.844;2023-05-10T07:55:12;16.60;99.90
20891;DHT22;10605;52.968;8.844;2023-05-10T07:57:38;16.90;99.90
20891;DHT22;10605;52.968;8.844;2023-05-10T08:00:05;17.00;99.90
20891;DHT22;10605;52.968;8.844;2023-05-10T08:02:30;16.60;99.90
20891;DHT22;10605;52.968;8.844;2023-05-10T08:04:56;16.30;99.90
20891;DHT22;10605;52.968;8.844;2023-05-10T08:07:24;16.20;99.90
20891;DHT22;10605;52.968;8.844;2023-05-10T08:09:49;16.50;99.90
20891;DHT22;10605;52.968;8.844;2023-05-10T08:12:15;17.00;99.90
20891;DHT22;10605;52.968;8.844;2023-05-10T08:14:41;17.50;99.90
20891;DHT22;10605;52.968;8.844;2023-05-10T08:17:06;17.80;99.90
20891;DHT22;10605;52.968;8.844;2023-05-10T08:19:32;18.20;99.90
20891;DHT22;10605;52.968;8.844;2023-05-10T08:21:58;18.50;99.90
20891;DHT22;10605;52.968;8.844;2023-05-10T08:24:23;18.40;99.90
20891;DHT22;10605;52.968;8.844;2023-05-10T08:26:49;18.50;99.90
20891;DHT22;10605;52.968;8.844;2023-05-10T08:29:15;18.70;99.90
20891;DHT22;10605;52.968;8.844;2023-05-10T08:31:41;19.00;99.90
20891;DHT22;10605;52.968;8.844;2023-05-10T08:34:06;19.70;99.90
20891;DHT22;10605;52.968;8.844;2023-05-10T08:36:32;19.90;99.90
20891;DHT22;10605;52.968;8.844;2023-05-10T08:38:58;20.00;99.90
20891;DHT22;10605;52.968;8.844;2023-05-10T08:41:24;20.10;99.90
20891;DHT22;10605;52.968;8.844;2023-05-10T08:43:54;19.30;99.90
20891;DHT22;10605;52.968;8.844;2023-05-10T08:46:22;18.70;99.90
20891;DHT22;10605;52.968;8.844;2023-05-10T08:48:49;17.90;99.90
20891;DHT22;10605;52.968;8.844;2023-05-10T08:51:23;17.40;99.90
20891;DHT22;10605;52.968;8.844;2023-05-10T08:53:52;17.40;99.90
20891;DHT22;10605;52.968;8.844;2023-05-10T08:56:18;17.70;99.90
20891;DHT22;10605;52.968;8.844;2023-05-10T08:58:45;18.60;99.90
20891;DHT22;10605;52.968;8.844;2023-05-10T09:01:12;20.20;99.90
20891;DHT22;10605;52.968;8.844;2023-05-10T09:03:39;21.00;99.90
20891;DHT22;10605;52.968;8.844;2023-05-10T09:06:05;21.70;99.90
20891;DHT22;10605;52.968;8.844;2023-05-10T09:08:32;22.60;99.90
20891;DHT22;10605;52.968;8.844;2023-05-10T09:11:00;23.70;99.90
20891;DHT22;10605;52.968;8.844;2023-05-10T09:13:27;23.20;99.90
20891;DHT22;10605;52.968;8.844;2023-05-10T11:50:47;27.10;99.90
20891;DHT22;10605;52.968;8.844;2023-05-10T11:54:14;25.40;99.90
20891;DHT22;10605;52.968;8.844;2023-05-10T11:56:46;24.90;99.90
20891;DHT22;10605;52.968;8.844;2023-05-10T11:59:21;24.30;99.90
20891;DHT22;10605;52.968;8.844;2023-05-10T12:01:58;23.70;99.90
20891;DHT22;10605;52.968;8.844;2023-05-10T12:05:14;23.40;99.90
20891;DHT22;10605;52.968;8.844;2023-05-10T12:08:46;23.00;99.90
20891;DHT22;10605;52.968;8.844;2023-05-10T12:11:47;22.50;99.90
20891;DHT22;10605;52.968;8.844;2023-05-10T12:14:13;21.10;99.90
20891;DHT22;10605;52.968;8.844;2023-05-10T12:16:43;19.60;99.90
20891;DHT22;10605;52.968;8.844;2023-05-10T12:19:09;19.00;99.90
20891;DHT22;10605;52.968;8.844;2023-05-10T12:21:34;19.10;99.90
20891;DHT22;10605;52.968;8.844;2023-05-10T12:24:07;19.40;99.90
20891;DHT22;10605;52.968;8.844;2023-05-10T12:26:44;19.50;99.90
20891;DHT22;10605;52.968;8.844;2023-05-10T12:29:17;22.00;99.90
20891;DHT22;10605;52.968;8.844;2023-05-10T12:31:57;24.10;99.90
20891;DHT22;10605;52.968;8.844;2023-05-10T12:34:41;23.90;99.90
20891;DHT22;10605;52.968;8.844;2023-05-10T12:37:07;23.00;99.90
20891;DHT22;10605;52.968;8.844;2023-05-10T12:39:43;22.70;99.90
20891;DHT22;10605;52.968;8.844;2023-05-10T12:42:09;22.90;99.90
20891;DHT22;10605;52.968;8.844;2023-05-10T12:44:36;23.00;99.90
20891;DHT22;10605;52.968;8.844;2023-05-10T12:47:04;23.80;99.90
20891;DHT22;10605;52.968;8.844;2023-05-10T12:49:32;24.40;99.90
20891;DHT22;10605;52.968;8.844;2023-05-10T12:51:59;24.00;99.90
20891;DHT22;10605;52.968;8.844;2023-05-10T12:54:28;23.40;99.90
20891;DHT22;10605;52.968;8.844;2023-05-10T12:57:14;22.90;99.90
20891;DHT22;10605;52.968;8.844;2023-05-10T13:00:26;22.30;99.90
20891;DHT22;10605;52.968;8.844;2023-05-10T13:03:34;22.30;99.90
20891;DHT22;10605;52.968;8.844;2023-05-10T13:06:30;22.10;99.90
20891;DHT22;10605;52.968;8.844;2023-05-10T13:09:03;21.20;99.90
20891;DHT22;10605;52.968;8.844;2023-05-10T13:11:29;20.80;99.90
20891;DHT22;10605;52.968;8.844;2023-05-10T13:13:55;20.60;99.90
20891;DHT22;10605;52.968;8.844;2023-05-10T13:16:23;20.40;99.90
20891;DHT22;10605;52.968;8.844;2023-05-10T13:18:53;20.20;99.90
20891;DHT22;10605;52.968;8.844;2023-05-10T13:21:19;20.80;99.90
20891;DHT22;10605;52.968;8.844;2023-05-10T13:23:45;21.10;99.90
20891;DHT22;10605;52.968;8.844;2023-05-10T13:26:12;20.80;99.90
20891;DHT22;10605;52.968;8.844;2023-05-10T13:28:37;20.30;99.90
20891;DHT22;10605;52.968;8.844;2023-05-10T13:31:04;20.20;99.90
20891;DHT22;10605;52.968;8.844;2023-05-10T13:33:30;20.10;99.90
20891;DHT22;10605;52.968;8.844;2023-05-10T13:35:56;20.00;99.90
20891;DHT22;10605;52.968;8.844;2023-05-10T13:38:24;20.00;99.90
20891;DHT22;10605;52.968;8.844;2023-05-10T13:40:49;20.00;99.90
20891;DHT22;10605;52.968;8.844;2023-05-10T13:46:40;19.90;99.90
20891;DHT22;10605;52.968;8.844;2023-05-10T13:52:14;19.80;99.90
20891;DHT22;10605;52.968;8.844;2023-05-10T13:54:51;20.80;99.90
20891;DHT22;10605;52.968;8.844;2023-05-10T13:57:20;20.80;99.90
20891;DHT22;10605;52.968;8.844;2023-05-10T13:59:46;21.50;99.90
20891;DHT22;10605;52.968;8.844;2023-05-10T14:02:12;21.70;99.90
20891;DHT22;10605;52.968;8.844;2023-05-10T14:04:38;21.70;99.90
20891;DHT22;10605;52.968;8.844;2023-05-10T14:07:06;21.40;99.90
20891;DHT22;10605;52.968;8.844;2023-05-10T14:09:41;21.40;99.90
20891;DHT22;10605;52.968;8.844;2023-05-10T14:12:09;21.70;99.90
20891;DHT22;10605;52.968;8.844;2023-05-10T14:14:42;22.30;99.90
20891;DHT22;10605;52.968;8.844;2023-05-10T14:17:13;22.40;99.90
20891;DHT22;10605;52.968;8.844;2023-05-10T14:19:48;22.20;99.90
20891;DHT22;10605;52.968;8.844;2023-05-10T14:22:14;22.70;99.90
20891;DHT22;10605;52.968;8.844;2023-05-10T14:24:47;22.80;99.90
20891;DHT22;10605;52.968;8.844;2023-05-10T14:27:19;23.10;99.90
20891;DHT22;10605;52.968;8.844;2023-05-10T14:29:54;23.40;99.90
20891;DHT22;10605;52.968;8.844;2023-05-10T14:32:22;23.60;99.90
20891;DHT22;10605;52.968;8.844;2023-05-10T14:34:53;23.80;99.90
20891;DHT22;10605;52.968;8.844;2023-05-10T14:37:29;23.00;99.90
20891;DHT22;10605;52.968;8.844;2023-05-10T14:40:01;22.70;99.90
20891;DHT22;10605;52.968;8.844;2023-05-10T14:42:29;22.60;99.90
20891;DHT22;10605;52.968;8.844;2023-05-10T14:44:55;22.80;99.90
20891;DHT22;10605;52.968;8.844;2023-05-10T14:47:20;23.30;99.90
20891;DHT22;10605;52.968;8.844;2023-05-10T14:49:46;23.00;99.90
20891;DHT22;10605;52.968;8.844;2023-05-10T14:52:12;22.30;99.90
20891;DHT22;10605;52.968;8.844;2023-05-10T14:54:39;22.10;99.90
20891;DHT22;10605;52.968;8.844;2023-05-10T14:57:08;21.80;99.90
20891;DHT22;10605;52.968;8.844;2023-05-10T14:59:34;21.80;99.90
20891;DHT22;10605;52.968;8.844;2023-05-10T15:02:00;21.50;99.90
20891;DHT22;10605;52.968;8.844;2023-05-10T15:04:28;21.30;99.90
20891;DHT22;10605;52.968;8.844;2023-05-10T15:06:57;21.90;99.90
20891;DHT22;10605;52.968;8.844;2023-05-10T15:09:26;21.30;99.90
20891;DHT22;10605;52.968;8.844;2023-05-10T15:11:55;20.80;99.90
20891;DHT22;10605;52.968;8.844;2023-05-10T15:14:22;20.70;99.90
20891;DHT22;10605;52.968;8.844;2023-05-10T15:16:48;20.90;99.90
20891;DHT22;10605;52.968;8.844;2023-05-10T15:19:14;21.40;99.90
20891;DHT22;10605;52.968;8.844;2023-05-10T15:21:40;21.70;99.90
20891;DHT22;10605;52.968;8.844;2023-05-10T15:24:08;22.20;99.90
20891;DHT22;10605;52.968;8.844;2023-05-10T15:26:35;21.80;99.90
20891;DHT22;10605;52.968;8.844;2023-05-10T15:29:00;21.50;99.90
20891;DHT22;10605;52.968;8.844;2023-05-10T15:31:29;21.00;99.90
20891;DHT22;10605;52.968;8.844;2023-05-10T15:34:00;21.00;99.90
20891;DHT22;10605;52.968;8.844;2023-05-10T15:36:26;20.70;99.90
20891;DHT22;10605;52.968;8.844;2023-05-10T15:38:55;20.50;99.90
20891;DHT22;10605;52.968;8.844;2023-05-10T15:41:21;20.20;99.90
20891;DHT22;10605;52.968;8.844;2023-05-10T15:43:47;20.10;99.90
20891;DHT22;10605;52.968;8.844;2023-05-10T15:46:12;19.80;99.90
20891;DHT22;10605;52.968;8.844;2023-05-10T15:48:38;19.70;99.90
20891;DHT22;10605;52.968;8.844;2023-05-10T15:51:04;19.50;99.90
20891;DHT22;10605;52.968;8.844;2023-05-10T15:53:33;19.50;99.90
20891;DHT22;10605;52.968;8.844;2023-05-10T15:55:59;19.50;99.90
20891;DHT22;10605;52.968;8.844;2023-05-10T15:58:25;19.60;99.90
20891;DHT22;10605;52.968;8.844;2023-05-10T16:00:51;19.90;99.90
20891;DHT22;10605;52.968;8.844;2023-05-10T16:03:17;20.40;99.90
20891;DHT22;10605;52.968;8.844;2023-05-10T16:05:42;20.00;99.90
20891;DHT22;10605;52.968;8.844;2023-05-10T16:08:08;20.00;99.90
20891;DHT22;10605;52.968;8.844;2023-05-10T16:10:34;19.80;99.90
20891;DHT22;10605;52.968;8.844;2023-05-10T16:13:03;19.70;99.90
20891;DHT22;10605;52.968;8.844;2023-05-10T16:15:29;19.70;99.90
20891;DHT22;10605;52.968;8.844;2023-05-10T16:18:00;19.50;99.90
20891;DHT22;10605;52.968;8.844;2023-05-10T16:20:26;19.20;99.90
20891;DHT22;10605;52.968;8.844;2023-05-10T16:22:52;19.00;99.90
20891;DHT22;10605;52.968;8.844;2023-05-10T16:25:18;19.30;99.90
20891;DHT22;10605;52.968;8.844;2023-05-10T16:27:44;19.50;99.90
20891;DHT22;10605;52.968;8.844;2023-05-10T16:30:13;19.30;99.90
20891;DHT22;10605;52.968;8.844;2023-05-10T16:32:42;19.20;99.90
20891;DHT22;10605;52.968;8.844;2023-05-10T16:35:08;19.30;99.90
20891;DHT22;10605;52.968;8.844;2023-05-10T16:37:36;19.40;99.90
20891;DHT22;10605;52.968;8.844;2023-05-10T16:40:06;19.50;99.90
20891;DHT22;10605;52.968;8.844;2023-05-10T16:42:32;19.10;99.90
20891;DHT22;10605;52.968;8.844;2023-05-10T16:45:04;19.00;99.90
20891;DHT22;10605;52.968;8.844;2023-05-10T16:47:35;19.00;99.90
20891;DHT22;10605;52.968;8.844;2023-05-10T16:50:02;19.30;99.90
20891;DHT22;10605;52.968;8.844;2023-05-10T16:52:29;19.40;99.90
20891;DHT22;10605;52.968;8.844;2023-05-10T16:54:55;19.50;99.90
20891;DHT22;10605;52.968;8.844;2023-05-10T16:57:24;19.00;99.90
20891;DHT22;10605;52.968;8.844;2023-05-10T16:59:52;19.00;99.90
20891;DHT22;10605;52.968;8.844;2023-05-10T17:02:19;19.00;99.90
20891;DHT22;10605;52.968;8.844;2023-05-10T17:04:45;19.10;99.90
20891;DHT22;10605;52.968;8.844;2023-05-10T17:07:11;18.80;99.90
20891;DHT22;10605;52.968;8.844;2023-05-10T17:09:38;18.80;99.90
20891;DHT22;10605;52.968;8.844;2023-05-10T17:12:07;18.80;99.90
20891;DHT22;10605;52.968;8.844;2023-05-10T17:14:33;18.90;99.90
20891;DHT22;10605;52.968;8.844;2023-05-10T17:16:59;18.60;99.90
20891;DHT22;10605;52.968;8.844;2023-05-10T17:19:27;18.70;99.90
20891;DHT22;10605;52.968;8.844;2023-05-10T17:21:53;19.00;99.90
20891;DHT22;10605;52.968;8.844;2023-05-10T17:24:24;19.00;99.90
20891;DHT22;10605;52.968;8.844;2023-05-10T17:26:58;18.90;99.90
20891;DHT22;10605;52.968;8.844;2023-05-10T17:29:26;18.70;99.90
20891;DHT22;10605;52.968;8.844;2023-05-10T17:31:56;18.50;99.90
20891;DHT22;10605;52.968;8.844;2023-05-10T17:34:22;18.30;99.90
20891;DHT22;10605;52.968;8.844;2023-05-10T17:36:51;18.00;99.90
20891;DHT22;10605;52.968;8.844;2023-05-10T17:39:17;17.90;99.90
20891;DHT22;10605;52.968;8.844;2023-05-10T17:41:42;17.90;99.90
20891;DHT22;10605;52.968;8.844;2023-05-10T17:44:08;17.80;99.90
20891;DHT22;10605;52.968;8.844;2023-05-10T17:46:45;17.80;99.90
20891;DHT22;10605;52.968;8.844;2023-05-10T17:49:16;17.90;99.90
20891;DHT22;10605;52.968;8.844;2023-05-10T17:51:45;17.80;99.90
20891;DHT22;10605;52.968;8.844;2023-05-10T17:54:13;17.60;99.90
20891;DHT22;10605;52.968;8.844;2023-05-10T17:56:39;17.60;99.90
20891;DHT22;10605;52.968;8.844;2023-05-10T17:59:11;17.60;99.90
20891;DHT22;10605;52.968;8.844;2023-05-10T18:01:39;17.80;99.90
20891;DHT22;10605;52.968;8.844;2023-05-10T18:04:13;17.90;99.90
20891;DHT22;10605;52.968;8.844;2023-05-10T18:06:41;17.70;99.90
20891;DHT22;10605;52.968;8.844;2023-05-10T18:09:07;17.40;99.90
20891;DHT22;10605;52.968;8.844;2023-05-10T18:11:35;17.30;99.90
20891;DHT22;10605;52.968;8.844;2023-05-10T18:14:02;17.00;99.90
20891;DHT22;10605;52.968;8.844;2023-05-10T18:16:29;17.00;99.90
20891;DHT22;10605;52.968;8.844;2023-05-10T18:18:54;16.80;99.90
20891;DHT22;10605;52.968;8.844;2023-05-10T18:21:20;16.80;99.90
20891;DHT22;10605;52.968;8.844;2023-05-10T18:23:46;16.80;99.90
20891;DHT22;10605;52.968;8.844;2023-05-10T18:26:12;16.80;99.90
20891;DHT22;10605;52.968;8.844;2023-05-10T18:28:37;16.80;99.90
20891;DHT22;10605;52.968;8.844;2023-05-10T18:31:03;16.80;99.90
20891;DHT22;10605;52.968;8.844;2023-05-10T18:33:29;16.70;99.90
20891;DHT22;10605;52.968;8.844;2023-05-10T18:35:55;16.60;99.90
20891;DHT22;10605;52.968;8.844;2023-05-10T18:38:20;16.50;99.90
20891;DHT22;10605;52.968;8.844;2023-05-10T18:40:46;16.40;99.90
20891;DHT22;10605;52.968;8.844;2023-05-10T18:43:12;16.30;99.90
20891;DHT22;10605;52.968;8.844;2023-05-10T18:45:39;16.40;99.90
20891;DHT22;10605;52.968;8.844;2023-05-10T18:48:04;16.40;99.90
20891;DHT22;10605;52.968;8.844;2023-05-10T18:50:31;16.40;99.90
20891;DHT22;10605;52.968;8.844;2023-05-10T18:52:57;16.30;99.90
20891;DHT22;10605;52.968;8.844;2023-05-10T18:55:25;16.20;99.90
20891;DHT22;10605;52.968;8.844;2023-05-10T18:57:51;16.10;99.90
20891;DHT22;10605;52.968;8.844;2023-05-10T19:00:16;16.00;99.90
20891;DHT22;10605;52.968;8.844;2023-05-10T19:02:47;15.90;99.90
20891;DHT22;10605;52.968;8.844;2023-05-10T19:05:14;15.80;99.90
20891;DHT22;10605;52.968;8.844;2023-05-10T19:07:40;15.60;99.90
20891;DHT22;10605;52.968;8.844;2023-05-10T19:10:19;15.40;99.90
20891;DHT22;10605;52.968;8.844;2023-05-10T19:13:15;15.20;99.90
20891;DHT22;10605;52.968;8.844;2023-05-10T19:16:03;15.20;99.90
20891;DHT22;10605;52.968;8.844;2023-05-10T19:18:38;15.20;99.90
20891;DHT22;10605;52.968;8.844;2023-05-10T19:21:13;15.20;99.90
20891;DHT22;10605;52.968;8.844;2023-05-10T19:23:39;15.10;99.90
20891;DHT22;10605;52.968;8.844;2023-05-10T19:26:10;15.00;99.90
20891;DHT22;10605;52.968;8.844;2023-05-10T19:28:45;14.90;99.90
20891;DHT22;10605;52.968;8.844;2023-05-10T19:31:12;14.90;99.90
20891;DHT22;10605;52.968;8.844;2023-05-10T19:33:38;14.80;99.90
20891;DHT22;10605;52.968;8.844;2023-05-10T19:36:03;14.80;99.90
20891;DHT22;10605;52.968;8.844;2023-05-10T19:38:29;14.70;99.90
20891;DHT22;10605;52.968;8.844;2023-05-10T19:41:04;14.70;99.90
20891;DHT22;10605;52.968;8.844;2023-05-10T19:47:20;14.70;99.90
20891;DHT22;10605;52.968;8.844;2023-05-10T19:50:24;14.50;99.90
20891;DHT22;10605;52.968;8.844;2023-05-10T19:53:13;14.40;99.90
20891;DHT22;10605;52.968;8.844;2023-05-10T19:55:54;14.40;99.90
20891;DHT22;10605;52.968;8.844;2023-05-10T19:58:26;14.40;99.90
20891;DHT22;10605;52.968;8.844;2023-05-10T20:00:53;14.40;99.90
20891;DHT22;10605;52.968;8.844;2023-05-10T20:03:18;14.30;99.90
20891;DHT22;10605;52.968;8.844;2023-05-10T20:05:44;14.20;99.90
20891;DHT22;10605;52.968;8.844;2023-05-10T20:08:10;14.10;99.90
20891;DHT22;10605;52.968;8.844;2023-05-10T20:10:36;14.10;99.90
20891;DHT22;10605;52.968;8.844;2023-05-10T20:13:02;14.10;99.90
20891;DHT22;10605;52.968;8.844;2023-05-10T20:15:28;14.00;99.90
20891;DHT22;10605;52.968;8.844;2023-05-10T20:17:53;14.00;99.90
20891;DHT22;10605;52.968;8.844;2023-05-10T20:20:20;14.00;99.90
20891;DHT22;10605;52.968;8.844;2023-05-10T20:22:46;13.90;99.90
20891;DHT22;10605;52.968;8.844;2023-05-10T20:25:13;13.90;99.90
20891;DHT22;10605;52.968;8.844;2023-05-10T20:27:39;13.90;99.90
20891;DHT22;10605;52.968;8.844;2023-05-10T20:30:05;13.90;99.90
20891;DHT22;10605;52.968;8.844;2023-05-10T20:32:31;13.90;99.90
20891;DHT22;10605;52.968;8.844;2023-05-10T20:34:57;13.90;99.90
20891;DHT22;10605;52.968;8.844;2023-05-10T20:37:23;13.80;99.90
20891;DHT22;10605;52.968;8.844;2023-05-10T20:39:49;13.80;99.90
20891;DHT22;10605;52.968;8.844;2023-05-10T20:42:15;13.80;99.90
20891;DHT22;10605;52.968;8.844;2023-05-10T20:44:40;13.80;99.90
20891;DHT22;10605;52.968;8.844;2023-05-10T20:47:06;13.70;99.90
20891;DHT22;10605;52.968;8.844;2023-05-10T20:49:33;13.70;99.90
20891;DHT22;10605;52.968;8.844;2023-05-10T20:51:59;13.60;99.90
20891;DHT22;10605;52.968;8.844;2023-05-10T20:54:25;13.60;99.90
20891;DHT22;10605;52.968;8.844;2023-05-10T20:56:51;13.60;99.90
20891;DHT22;10605;52.968;8.844;2023-05-10T20:59:17;13.50;99.90
20891;DHT22;10605;52.968;8.844;2023-05-10T21:01:44;13.40;99.90
20891;DHT22;10605;52.968;8.844;2023-05-10T21:04:10;13.40;99.90
20891;DHT22;10605;52.968;8.844;2023-05-10T21:06:36;13.40;99.90
20891;DHT22;10605;52.968;8.844;2023-05-10T21:09:01;13.40;99.90
20891;DHT22;10605;52.968;8.844;2023-05-10T21:11:27;13.40;99.90
20891;DHT22;10605;52.968;8.844;2023-05-10T21:13:53;13.40;99.90
20891;DHT22;10605;52.968;8.844;2023-05-10T21:16:18;13.30;99.90
20891;DHT22;10605;52.968;8.844;2023-05-10T21:18:44;13.30;99.90
20891;DHT22;10605;52.968;8.844;2023-05-10T21:21:10;13.30;99.90
20891;DHT22;10605;52.968;8.844;2023-05-10T21:23:35;13.30;99.90
20891;DHT22;10605;52.968;8.844;2023-05-10T21:26:02;13.20;99.90
20891;DHT22;10605;52.968;8.844;2023-05-10T21:28:27;13.10;99.90
20891;DHT22;10605;52.968;8.844;2023-05-10T21:30:53;13.10;99.90
20891;DHT22;10605;52.968;8.844;2023-05-10T21:33:19;13.00;99.90
20891;DHT22;10605;52.968;8.844;2023-05-10T21:35:44;13.00;99.90
20891;DHT22;10605;52.968;8.844;2023-05-10T21:38:10;13.00;99.90
20891;DHT22;10605;52.968;8.844;2023-05-10T21:40:37;13.00;99.90
20891;DHT22;10605;52.968;8.844;2023-05-10T21:43:04;12.90;99.90
20891;DHT22;10605;52.968;8.844;2023-05-10T21:45:29;12.90;99.90
20891;DHT22;10605;52.968;8.844;2023-05-10T21:47:58;12.90;99.90
20891;DHT22;10605;52.968;8.844;2023-05-10T21:50:24;12.90;99.90
20891;DHT22;10605;52.968;8.844;2023-05-10T21:52:50;12.80;99.90
20891;DHT22;10605;52.968;8.844;2023-05-10T21:55:16;12.80;99.90
20891;DHT22;10605;52.968;8.844;2023-05-10T21:57:42;12.80;99.90
20891;DHT22;10605;52.968;8.844;2023-05-10T22:00:10;12.80;99.90
20891;DHT22;10605;52.968;8.844;2023-05-10T22:02:36;12.80;99.90
20891;DHT22;10605;52.968;8.844;2023-05-10T22:05:02;12.80;99.90
20891;DHT22;10605;52.968;8.844;2023-05-10T22:07:29;12.70;99.90
20891;DHT22;10605;52.968;8.844;2023-05-10T22:09:55;12.70;99.90
20891;DHT22;10605;52.968;8.844;2023-05-10T22:12:21;12.70;99.90
20891;DHT22;10605;52.968;8.844;2023-05-10T22:14:46;12.70;99.90
20891;DHT22;10605;52.968;8.844;2023-05-10T22:17:12;12.70;99.90
20891;DHT22;10605;52.968;8.844;2023-05-10T22:19:38;12.70;99.90
20891;DHT22;10605;52.968;8.844;2023-05-10T22:22:04;12.80;99.90
20891;DHT22;10605;52.968;8.844;2023-05-10T22:24:30;12.80;99.90
20891;DHT22;10605;52.968;8.844;2023-05-10T22:26:56;12.70;99.90
20891;DHT22;10605;52.968;8.844;2023-05-10T22:29:22;12.70;99.90
20891;DHT22;10605;52.968;8.844;2023-05-10T22:31:48;12.70;99.90
20891;DHT22;10605;52.968;8.844;2023-05-10T22:34:14;12.80;99.90
20891;DHT22;10605;52.968;8.844;2023-05-10T22:36:39;12.80;99.90
20891;DHT22;10605;52.968;8.844;2023-05-10T22:39:05;12.70;99.90
20891;DHT22;10605;52.968;8.844;2023-05-10T22:41:34;12.70;99.90
20891;DHT22;10605;52.968;8.844;2023-05-10T22:44:00;12.60;99.90
20891;DHT22;10605;52.968;8.844;2023-05-10T22:46:26;12.60;99.90
20891;DHT22;10605;52.968;8.844;2023-05-10T22:48:54;12.60;99.90
20891;DHT22;10605;52.968;8.844;2023-05-10T22:51:20;12.60;99.90
20891;DHT22;10605;52.968;8.844;2023-05-10T22:53:45;12.60;99.90
20891;DHT22;10605;52.968;8.844;2023-05-10T22:56:11;12.60;99.90
20891;DHT22;10605;52.968;8.844;2023-05-10T22:58:37;12.60;99.90
20891;DHT22;10605;52.968;8.844;2023-05-10T23:01:02;12.60;99.90
20891;DHT22;10605;52.968;8.844;2023-05-10T23:03:28;12.50;99.90
20891;DHT22;10605;52.968;8.844;2023-05-10T23:05:54;12.50;99.90
20891;DHT22;10605;52.968;8.844;2023-05-10T23:08:20;12.50;99.90
20891;DHT22;10605;52.968;8.844;2023-05-10T23:10:46;12.50;99.90
20891;DHT22;10605;52.968;8.844;2023-05-10T23:13:12;12.60;99.90
20891;DHT22;10605;52.968;8.844;2023-05-10T23:15:38;12.50;99.90
20891;DHT22;10605;52.968;8.844;2023-05-10T23:18:04;12.50;99.90
20891;DHT22;10605;52.968;8.844;2023-05-10T23:20:30;12.50;99.90
20891;DHT22;10605;52.968;8.844;2023-05-10T23:22:56;12.50;99.90
20891;DHT22;10605;52.968;8.844;2023-05-10T23:25:22;12.40;99.90
20891;DHT22;10605;52.968;8.844;2023-05-10T23:27:47;12.40;99.90
20891;DHT22;10605;52.968;8.844;2023-05-10T23:30:13;12.40;99.90
20891;DHT22;10605;52.968;8.844;2023-05-10T23:32:39;12.40;99.90
20891;DHT22;10605;52.968;8.844;2023-05-10T23:35:05;12.40;99.90
20891;DHT22;10605;52.968;8.844;2023-05-10T23:37:31;12.50;99.90
20891;DHT22;10605;52.968;8.844;2023-05-10T23:39:56;12.50;99.90
20891;DHT22;10605;52.968;8.844;2023-05-10T23:42:22;12.50;99.90
20891;DHT22;10605;52.968;8.844;2023-05-10T23:44:49;12.50;99.90
20891;DHT22;10605;52.968;8.844;2023-05-10T23:47:14;12.40;99.90
20891;DHT22;10605;52.968;8.844;2023-05-10T23:49:40;12.40;99.90
20891;DHT22;10605;52.968;8.844;2023-05-10T23:52:09;12.30;99.90
20891;DHT22;10605;52.968;8.844;2023-05-10T23:54:34;12.30;99.90
20891;DHT22;10605;52.968;8.844;2023-05-10T23:57:00;12.40;99.90
20891;DHT22;10605;52.968;8.844;2023-05-10T23:59:26;12.30;99.90
